Flugmeteorologie

  • METAR LHSM 141015Z 36006KT 9999 FEW026 13/06 Q1031 NOSIG=
  • METAR LHSM 140945Z 35008KT CAVOK 13/07 Q1031 NOSIG=
  • METAR LHSM 140915Z 36008KT CAVOK 13/07 Q1031 NOSIG=
  • METAR LHSM 140845Z 32005KT CAVOK 11/07 Q1031 NOSIG=
  • METAR LHSM 140815Z 29004KT CAVOK 10/07 Q1031 NOSIG=

  • TAF LHSM 140815Z 1409/1418 28005KT 9999 FEW015
  • TAF LHSM 140515Z 1406/1415 32004KT 6000 NSC
  • TAF LHSM 131115Z 1312/1321 23007KT CAVOK
  • TAF LHSM 130815Z 1309/1318 16006KT CAVOK
  • TAF LHSM 130515Z 1306/1315 14005KT 6000 NSC